Time;durP1;ratioP1;P1;durP2;ratioP2;P2;SDS_P1;SDS_P2;PMS_P1;PMS_P2;Temp;Humidity;BMP_temperature;BMP_pressure;BME280_temperature;BME280_humidity;BME280_pressure;Samples;Min_cycle;Max_cycle;Signal;HPM_P1;HPM_P2
2022/06/11 00:02:24;;;;;;;;;;;18.70;61.00;;;;;;5112558;28;19912;-58
2022/06/11 00:04:50;;;;;;;;;;;18.90;60.90;;;;;;5114685;28;19911;-54
2022/06/11 00:07:19;;;;;;;;;;;19.00;59.80;;;;;;5115720;28;19912;-58
2022/06/11 00:09:46;;;;;;;;;;;19.20;59.90;;;;;;5116431;28;19970;-59
2022/06/11 00:12:14;;;;;;;;;;;19.30;59.80;;;;;;5116521;28;20338;-60
2022/06/11 00:14:42;;;;;;;;;;;19.50;58.40;;;;;;5116275;28;19908;-55
2022/06/11 00:17:12;;;;;;;;;;;19.40;58.60;;;;;;5115288;28;19907;-58
2022/06/11 00:19:39;;;;;;;;;;;19.30;59.10;;;;;;5115067;28;19908;-57
2022/06/11 00:22:07;;;;;;;;;;;19.30;57.80;;;;;;5115714;28;19911;-58
2022/06/11 00:24:34;;;;;;;;;;;19.40;59.80;;;;;;5115880;28;19918;-58
2022/06/11 00:27:01;;;;;;;;;;;19.50;59.00;;;;;;5116235;28;20350;-60
2022/06/11 00:29:29;;;;;;;;;;;19.50;59.60;;;;;;5116609;28;19915;-57
2022/06/11 00:31:56;;;;;;;;;;;19.40;58.50;;;;;;5116391;28;19934;-50
2022/06/11 00:34:23;;;;;;;;;;;19.50;58.20;;;;;;5114630;28;19908;-59
2022/06/11 00:36:50;;;;;;;;;;;19.70;58.80;;;;;;5115946;28;19969;-58
2022/06/11 00:39:19;;;;;;;;;;;19.70;57.00;;;;;;5116170;28;19914;-54
2022/06/11 00:41:47;;;;;;;;;;;19.90;58.00;;;;;;5114536;28;20368;-62
2022/06/11 00:44:15;;;;;;;;;;;19.90;58.50;;;;;;5115947;28;19919;-54
2022/06/11 00:46:48;;;;;;;;;;;20.00;56.80;;;;;;5115486;28;20338;-58
2022/06/11 00:49:18;;;;;;;;;;;20.00;56.80;;;;;;5115859;28;19908;-60
2022/06/11 00:51:46;;;;;;;;;;;20.20;57.00;;;;;;5116070;28;19911;-59
2022/06/11 00:54:15;;;;;;;;;;;20.10;58.40;;;;;;5115938;28;19998;-55
2022/06/11 00:56:45;;;;;;;;;;;20.20;57.60;;;;;;5115419;28;19908;-57
2022/06/11 00:59:15;;;;;;;;;;;20.40;56.40;;;;;;5115860;28;19915;-59
2022/06/11 01:01:42;;;;;;;;;;;20.20;57.30;;;;;;5114565;28;20377;-58
2022/06/11 01:04:48;;;;;;;;;;;20.40;55.40;;;;;;5115455;28;20002;-58
2022/06/11 01:07:18;;;;;;;;;;;20.40;56.80;;;;;;5093058;28;19908;-59
2022/06/11 01:09:45;;;;;;;;;;;20.40;56.20;;;;;;5092849;28;20420;-60
2022/06/11 01:12:18;;;;;;;;;;;20.50;56.60;;;;;;5104773;28;20308;-56
2022/06/11 01:14:51;;;;;;;;;;;20.50;55.10;;;;;;5114970;28;19947;-52
2022/06/11 01:17:26;;;;;;;;;;;20.60;56.90;;;;;;5114944;28;20010;-61
2022/06/11 01:20:17;;;;;;;;;;;20.70;56.00;;;;;;5115902;28;19908;-56
2022/06/11 01:23:01;;;;;;;;;;;20.70;56.20;;;;;;5115134;28;19943;-57
2022/06/11 01:25:29;;;;;;;;;;;20.60;56.50;;;;;;5116391;28;20247;-46
2022/06/11 01:28:14;;;;;;;;;;;20.70;55.70;;;;;;5115391;28;19927;-43
2022/06/11 01:30:46;;;;;;;;;;;20.90;56.40;;;;;;5114748;28;20338;-49
2022/06/11 01:33:19;;;;;;;;;;;21.00;55.10;;;;;;5115013;28;20010;-48
2022/06/11 01:36:11;;;;;;;;;;;21.00;55.20;;;;;;5114676;28;20349;-43
2022/06/11 01:38:39;;;;;;;;;;;20.90;54.90;;;;;;5114498;28;19908;-56
2022/06/11 01:41:21;;;;;;;;;;;20.90;56.90;;;;;;5114388;28;20120;-55
2022/06/11 01:43:49;;;;;;;;;;;20.80;56.30;;;;;;5114382;28;19977;-58
2022/06/11 01:46:21;;;;;;;;;;;21.00;56.60;;;;;;5114541;28;19965;-62
2022/06/11 01:48:55;;;;;;;;;;;21.10;55.70;;;;;;5113981;28;19942;-60
2022/06/11 01:51:22;;;;;;;;;;;21.20;55.90;;;;;;5114646;28;20017;-62
2022/06/11 01:53:57;;;;;;;;;;;21.20;54.60;;;;;;5114345;27;20259;-59
2022/06/11 01:56:24;;;;;;;;;;;21.10;54.70;;;;;;5113662;28;20320;-54
2022/06/11 01:59:09;;;;;;;;;;;21.30;56.20;;;;;;5114645;28;19930;-61
2022/06/11 02:01:42;;;;;;;;;;;21.40;55.50;;;;;;5114569;28;19931;-54
2022/06/11 02:04:09;;;;;;;;;;;21.40;56.40;;;;;;5113656;27;19922;-61
2022/06/11 02:06:38;;;;;;;;;;;21.50;55.50;;;;;;5112374;28;20255;-59
2022/06/11 02:09:10;;;;;;;;;;;21.50;55.00;;;;;;5114147;28;20003;-62
2022/06/11 02:12:00;;;;;;;;;;;21.60;55.00;;;;;;5114255;28;19912;-65
2022/06/11 02:14:29;;;;;;;;;;;21.50;55.80;;;;;;5110298;28;20370;-62
2022/06/11 02:17:04;;;;;;;;;;;21.60;54.30;;;;;;5113984;28;20063;-62
2022/06/11 02:19:36;;;;;;;;;;;21.80;52.70;;;;;;5113674;28;19960;-61
2022/06/11 02:22:06;;;;;;;;;;;21.70;55.30;;;;;;5113464;28;19907;-63
2022/06/11 02:24:42;;;;;;;;;;;21.80;54.60;;;;;;5113109;28;19912;-65
2022/06/11 02:27:13;;;;;;;;;;;22.00;55.00;;;;;;5112830;28;19908;-58
2022/06/11 02:29:40;;;;;;;;;;;22.10;54.00;;;;;;5113505;28;20006;-53
2022/06/11 02:32:12;;;;;;;;;;;22.20;54.50;;;;;;5113767;28;19991;-51
2022/06/11 02:34:40;;;;;;;;;;;22.20;54.10;;;;;;5111946;28;19933;-54
2022/06/11 02:37:10;;;;;;;;;;;22.30;54.30;;;;;;5111951;28;19943;-53
2022/06/11 02:39:39;;;;;;;;;;;22.40;52.80;;;;;;5113294;28;19915;-53
2022/06/11 02:42:07;;;;;;;;;;;22.20;54.20;;;;;;5113130;28;19915;-51
2022/06/11 02:44:35;;;;;;;;;;;22.20;53.60;;;;;;5113153;28;19912;-56
2022/06/11 02:47:02;;;;;;;;;;;22.20;52.60;;;;;;5113406;28;19908;-58
2022/06/11 02:49:30;;;;;;;;;;;22.00;52.50;;;;;;5113541;28;19907;-57
2022/06/11 02:51:59;;;;;;;;;;;22.10;54.80;;;;;;5113520;28;19967;-59
2022/06/11 02:54:26;;;;;;;;;;;22.20;53.70;;;;;;5112769;28;20047;-49
2022/06/11 02:56:53;;;;;;;;;;;22.20;53.60;;;;;;5112743;28;19908;-49
2022/06/11 02:59:21;;;;;;;;;;;22.30;54.40;;;;;;5101112;28;20331;-55
2022/06/11 03:01:48;;;;;;;;;;;22.50;52.10;;;;;;5088860;28;20397;-54
2022/06/11 03:04:15;;;;;;;;;;;22.40;54.80;;;;;;5087306;28;20337;-44
2022/06/11 03:06:42;;;;;;;;;;;22.30;52.00;;;;;;5089544;28;20002;-56
2022/06/11 03:09:14;;;;;;;;;;;22.40;53.90;;;;;;5079664;28;19939;-43
2022/06/11 03:11:41;;;;;;;;;;;22.60;51.40;;;;;;5073803;28;20388;-50
2022/06/11 03:14:08;;;;;;;;;;;22.60;51.90;;;;;;5086326;28;20274;-45
2022/06/11 03:16:36;;;;;;;;;;;22.70;52.60;;;;;;5082282;28;19985;-56
2022/06/11 03:19:03;;;;;;;;;;;22.60;52.90;;;;;;5078776;28;19954;-55
2022/06/11 03:21:30;;;;;;;;;;;22.70;53.50;;;;;;5079547;28;20378;-53
2022/06/11 03:23:57;;;;;;;;;;;22.80;54.50;;;;;;5086681;28;20037;-54
2022/06/11 03:26:24;;;;;;;;;;;22.70;53.90;;;;;;5079513;28;19916;-45
2022/06/11 03:28:51;;;;;;;;;;;22.70;53.50;;;;;;5068448;28;19916;-53
2022/06/11 03:31:17;;;;;;;;;;;22.70;51.50;;;;;;5092709;28;19908;-56
2022/06/11 03:33:44;;;;;;;;;;;22.60;53.60;;;;;;5092514;28;19961;-56
2022/06/11 03:36:13;;;;;;;;;;;22.60;52.50;;;;;;5092043;28;19961;-60
2022/06/11 03:38:42;;;;;;;;;;;22.40;53.60;;;;;;5094208;28;19914;-50
2022/06/11 03:41:09;;;;;;;;;;;22.40;53.30;;;;;;5096673;28;19908;-48
2022/06/11 03:43:36;;;;;;;;;;;22.40;54.50;;;;;;5096123;28;19952;-60
2022/06/11 03:46:03;;;;;;;;;;;22.20;54.50;;;;;;5096247;28;20286;-53
2022/06/11 03:48:31;;;;;;;;;;;22.30;52.40;;;;;;5095663;28;20305;-60
2022/06/11 03:50:59;;;;;;;;;;;22.30;52.70;;;;;;5095965;28;19970;-48
2022/06/11 03:53:27;;;;;;;;;;;22.40;54.70;;;;;;5096588;28;19912;-50
2022/06/11 03:55:54;;;;;;;;;;;22.40;54.80;;;;;;5095580;28;19916;-43
2022/06/11 03:58:21;;;;;;;;;;;22.40;51.70;;;;;;5096052;28;20018;-43
2022/06/11 04:03:35;;;;;;;;;;;22.30;53.20;;;;;;5096438;28;19923;-47
2022/06/11 04:06:02;;;;;;;;;;;22.20;52.20;;;;;;5095706;28;20049;-49
2022/06/11 04:08:28;;;;;;;;;;;22.20;51.40;;;;;;5095369;28;19939;-52
2022/06/11 04:10:56;;;;;;;;;;;22.30;52.90;;;;;;5095762;28;19999;-55
2022/06/11 04:13:24;;;;;;;;;;;22.40;54.20;;;;;;5095477;28;19991;-54
2022/06/11 04:15:55;;;;;;;;;;;22.20;51.70;;;;;;5094882;28;20139;-58
2022/06/11 04:18:31;;;;;;;;;;;22.10;51.70;;;;;;5095393;28;19916;-59
2022/06/11 04:20:58;;;;;;;;;;;21.90;51.30;;;;;;5095636;28;20004;-52
2022/06/11 04:23:29;;;;;;;;;;;21.90;55.10;;;;;;5095834;28;19938;-54
2022/06/11 04:25:57;;;;;;;;;;;21.90;54.80;;;;;;5095692;28;19909;-51
2022/06/11 04:28:24;;;;;;;;;;;21.80;54.20;;;;;;5095713;28;20360;-53
2022/06/11 04:30:51;;;;;;;;;;;21.60;53.80;;;;;;5095594;28;20007;-54
2022/06/11 04:33:17;;;;;;;;;;;21.30;53.40;;;;;;5095184;28;20366;-55
2022/06/11 04:35:44;;;;;;;;;;;21.10;51.70;;;;;;5094721;28;19912;-44
2022/06/11 04:38:12;;;;;;;;;;;20.90;56.20;;;;;;5093298;28;19908;-57
2022/06/11 04:40:38;;;;;;;;;;;20.70;55.00;;;;;;5092606;28;19944;-52
2022/06/11 04:43:05;;;;;;;;;;;20.70;58.70;;;;;;5093816;28;20003;-42
2022/06/11 04:45:32;;;;;;;;;;;20.80;54.30;;;;;;5075801;28;19936;-57
2022/06/11 04:47:59;;;;;;;;;;;20.90;58.40;;;;;;5092582;28;19912;-55
2022/06/11 04:50:25;;;;;;;;;;;21.00;58.40;;;;;;5073806;28;19908;-54
2022/06/11 04:52:52;;;;;;;;;;;21.10;56.60;;;;;;5093963;28;20286;-49
2022/06/11 04:55:19;;;;;;;;;;;21.20;57.30;;;;;;5076894;28;20315;-51
2022/06/11 04:57:47;;;;;;;;;;;21.20;57.60;;;;;;5094075;28;19908;-53
2022/06/11 05:00:16;;;;;;;;;;;21.30;56.50;;;;;;5093359;28;19912;-53
2022/06/11 05:02:43;;;;;;;;;;;21.40;56.40;;;;;;5094162;28;19935;-49
2022/06/11 05:05:10;;;;;;;;;;;21.50;57.60;;;;;;5093540;28;19919;-56
2022/06/11 05:07:37;;;;;;;;;;;21.70;57.00;;;;;;5094605;28;19916;-57
2022/06/11 05:10:05;;;;;;;;;;;21.80;56.70;;;;;;5095294;28;19916;-59
2022/06/11 05:12:31;;;;;;;;;;;21.90;55.80;;;;;;5094310;28;19959;-60
2022/06/11 05:14:58;;;;;;;;;;;21.80;54.60;;;;;;5094546;28;19953;-59
2022/06/11 05:17:25;;;;;;;;;;;21.60;52.20;;;;;;5093506;28;19915;-56
2022/06/11 05:19:52;;;;;;;;;;;21.40;54.40;;;;;;5093621;28;19908;-60
2022/06/11 05:22:18;;;;;;;;;;;21.20;55.40;;;;;;5092455;28;19909;-53
2022/06/11 05:24:45;;;;;;;;;;;21.00;53.60;;;;;;5094889;28;19936;-49
2022/06/11 05:27:14;;;;;;;;;;;20.90;57.80;;;;;;5095281;28;19908;-52
2022/06/11 05:29:47;;;;;;;;;;;20.70;56.10;;;;;;5094377;28;19908;-42
2022/06/11 05:32:16;;;;;;;;;;;20.60;58.30;;;;;;5094157;28;19908;-46
2022/06/11 05:34:43;;;;;;;;;;;20.50;55.80;;;;;;5093616;28;19915;-50
2022/06/11 05:37:10;;;;;;;;;;;20.40;56.00;;;;;;5075940;28;20274;-46
2022/06/11 05:39:37;;;;;;;;;;;20.30;57.20;;;;;;5093705;28;19935;-52
2022/06/11 05:42:03;;;;;;;;;;;20.10;56.70;;;;;;5093953;28;19908;-49
2022/06/11 05:44:30;;;;;;;;;;;19.90;57.40;;;;;;5093723;28;20354;-51
2022/06/11 05:46:57;;;;;;;;;;;19.60;50.40;;;;;;5093434;28;20219;-50
2022/06/11 05:49:25;;;;;;;;;;;19.40;51.70;;;;;;5093031;28;20336;-45
2022/06/11 05:51:55;;;;;;;;;;;19.30;57.10;;;;;;5093869;28;19909;-56
2022/06/11 05:54:24;;;;;;;;;;;19.30;51.00;;;;;;5093730;28;20292;-56
2022/06/11 05:56:51;;;;;;;;;;;19.20;56.30;;;;;;5093628;28;19998;-57
2022/06/11 05:59:26;;;;;;;;;;;19.10;58.70;;;;;;5093531;28;20396;-59
2022/06/11 06:01:54;;;;;;;;;;;18.90;54.00;;;;;;5092700;28;19908;-51
2022/06/11 06:04:21;;;;;;;;;;;18.80;57.80;;;;;;5092739;28;19916;-54
2022/06/11 06:06:48;;;;;;;;;;;18.70;54.10;;;;;;5093234;28;19977;-58
2022/06/11 06:09:14;;;;;;;;;;;18.60;54.40;;;;;;5093734;28;20082;-52
2022/06/11 06:11:41;;;;;;;;;;;18.50;57.00;;;;;;5093251;28;19908;-52
2022/06/11 06:14:08;;;;;;;;;;;18.50;60.10;;;;;;5094310;28;19915;-57
2022/06/11 06:16:35;;;;;;;;;;;18.40;59.60;;;;;;5094136;28;19915;-45
2022/06/11 06:19:02;;;;;;;;;;;18.30;60.70;;;;;;5076373;28;20022;-47
2022/06/11 06:21:31;;;;;;;;;;;18.20;57.50;;;;;;5093234;28;20271;-60
2022/06/11 06:23:58;;;;;;;;;;;18.10;61.10;;;;;;5093341;28;19970;-56
2022/06/11 06:26:25;;;;;;;;;;;18.10;62.20;;;;;;5093585;28;19962;-57
2022/06/11 06:28:52;;;;;;;;;;;18.00;62.40;;;;;;5082610;28;19912;-58
2022/06/11 06:31:18;;;;;;;;;;;18.00;62.10;;;;;;5072999;28;19909;-52
2022/06/11 06:33:46;;;;;;;;;;;17.90;60.20;;;;;;5073275;28;19909;-47
2022/06/11 06:36:14;;;;;;;;;;;18.00;62.30;;;;;;5073046;28;19908;-52
2022/06/11 06:38:41;;;;;;;;;;;17.90;59.00;;;;;;5072512;28;19908;-58
2022/06/11 06:41:08;;;;;;;;;;;17.90;59.60;;;;;;5073163;28;19909;-59
2022/06/11 06:43:35;;;;;;;;;;;17.90;61.40;;;;;;5072695;28;19923;-58
2022/06/11 06:46:02;;;;;;;;;;;17.80;57.20;;;;;;5073101;28;19953;-58
2022/06/11 06:48:29;;;;;;;;;;;17.80;60.30;;;;;;5072521;28;19909;-53
2022/06/11 06:50:56;;;;;;;;;;;17.70;61.50;;;;;;5072881;28;19908;-50
2022/06/11 06:53:23;;;;;;;;;;;17.60;58.80;;;;;;5054902;28;19987;-51
2022/06/11 06:55:50;;;;;;;;;;;17.60;60.20;;;;;;5073093;28;19908;-57
2022/06/11 06:58:17;;;;;;;;;;;17.50;62.50;;;;;;5072868;28;19909;-54
2022/06/11 07:00:44;;;;;;;;;;;17.40;58.20;;;;;;5072465;28;20343;-56
2022/06/11 07:03:12;;;;;;;;;;;17.40;59.30;;;;;;5072803;28;20302;-58
2022/06/11 07:05:40;;;;;;;;;;;17.30;60.60;;;;;;5072316;28;20423;-55
2022/06/11 07:08:07;;;;;;;;;;;17.30;60.30;;;;;;5081574;28;20343;-54
2022/06/11 07:10:33;;;;;;;;;;;17.30;61.70;;;;;;5092563;28;19940;-60
2022/06/11 07:13:01;;;;;;;;;;;17.30;60.50;;;;;;5092748;28;19908;-57
2022/06/11 07:15:28;;;;;;;;;;;17.30;64.90;;;;;;5091858;28;20410;-57
2022/06/11 07:18:24;;;;;;;;;;;17.30;59.80;;;;;;5092670;28;19930;-46
2022/06/11 07:20:52;;;;;;;;;;;17.20;65.50;;;;;;5084084;28;19908;-50
2022/06/11 07:23:28;;;;;;;;;;;17.20;59.60;;;;;;5091993;28;19916;-56
2022/06/11 07:25:56;;;;;;;;;;;17.20;64.20;;;;;;5092460;28;19913;-57
2022/06/11 07:28:30;;;;;;;;;;;17.20;62.50;;;;;;5093158;28;19908;-50
2022/06/11 07:30:57;;;;;;;;;;;17.20;60.10;;;;;;5091651;28;19920;-49
2022/06/11 07:33:25;;;;;;;;;;;17.10;59.20;;;;;;5092754;28;20002;-56
2022/06/11 07:35:52;;;;;;;;;;;17.20;68.30;;;;;;5092560;28;19915;-59
2022/06/11 07:38:20;;;;;;;;;;;17.20;67.70;;;;;;5092543;28;19916;-56
2022/06/11 07:40:47;;;;;;;;;;;17.20;64.60;;;;;;5092251;28;19961;-60
2022/06/11 07:43:14;;;;;;;;;;;17.20;62.50;;;;;;5092517;28;19919;-54
2022/06/11 07:45:42;;;;;;;;;;;17.20;66.50;;;;;;5092146;28;19915;-58
2022/06/11 07:48:09;;;;;;;;;;;17.20;66.10;;;;;;5092627;28;20284;-60
2022/06/11 07:50:38;;;;;;;;;;;17.10;65.80;;;;;;5092100;28;20317;-54
2022/06/11 07:53:05;;;;;;;;;;;17.10;63.70;;;;;;5092726;28;19908;-48
2022/06/11 07:55:32;;;;;;;;;;;17.10;65.80;;;;;;5092418;28;19912;-53
2022/06/11 07:58:00;;;;;;;;;;;17.10;66.80;;;;;;5092555;28;20232;-53
2022/06/11 08:00:28;;;;;;;;;;;17.10;59.90;;;;;;5092431;28;20369;-57
2022/06/11 08:02:54;;;;;;;;;;;17.00;60.90;;;;;;5090616;28;20286;-46
2022/06/11 08:05:22;;;;;;;;;;;17.00;62.80;;;;;;5090959;28;19908;-47
2022/06/11 08:07:51;;;;;;;;;;;17.00;66.40;;;;;;5092572;28;19916;-60
2022/06/11 08:10:18;;;;;;;;;;;17.00;67.20;;;;;;5092536;28;19908;-44
2022/06/11 08:12:45;;;;;;;;;;;17.00;67.50;;;;;;5091962;28;19931;-55
2022/06/11 08:15:12;;;;;;;;;;;16.90;69.60;;;;;;5092571;28;19909;-60
2022/06/11 08:17:40;;;;;;;;;;;16.80;70.30;;;;;;5091956;28;19908;-56
2022/06/11 08:20:08;;;;;;;;;;;16.80;70.70;;;;;;5091687;28;20248;-57
2022/06/11 08:22:35;;;;;;;;;;;16.70;70.20;;;;;;5092162;28;20358;-59
2022/06/11 08:25:02;;;;;;;;;;;16.60;70.70;;;;;;5093136;28;20378;-53
2022/06/11 08:27:29;;;;;;;;;;;16.60;70.60;;;;;;5095897;28;20052;-57
2022/06/11 08:29:55;;;;;;;;;;;16.60;70.60;;;;;;5095646;28;19908;-46
2022/06/11 08:32:22;;;;;;;;;;;16.50;70.70;;;;;;5095592;28;19938;-45
2022/06/11 08:34:49;;;;;;;;;;;16.50;70.70;;;;;;5095749;28;19915;-44
2022/06/11 08:37:16;;;;;;;;;;;16.40;70.60;;;;;;5095088;28;19993;-48
2022/06/11 08:39:43;;;;;;;;;;;16.40;69.50;;;;;;5095447;28;19908;-46
2022/06/11 08:42:33;;;;;;;;;;;16.40;70.60;;;;;;5095742;28;19962;-45
2022/06/11 08:45:03;;;;;;;;;;;16.30;71.10;;;;;;5089231;28;20003;-45
2022/06/11 08:47:33;;;;;;;;;;;16.30;71.20;;;;;;5095348;28;19908;-48
2022/06/11 08:50:02;;;;;;;;;;;16.30;71.00;;;;;;5095221;28;20301;-45
2022/06/11 08:52:31;;;;;;;;;;;16.20;71.40;;;;;;5094971;28;19908;-51
2022/06/11 08:54:59;;;;;;;;;;;16.20;71.10;;;;;;5093144;28;20287;-47
2022/06/11 08:57:35;;;;;;;;;;;16.20;70.70;;;;;;5094991;28;19941;-52
2022/06/11 09:00:08;;;;;;;;;;;16.10;71.10;;;;;;5095397;28;19908;-54
2022/06/11 09:02:47;;;;;;;;;;;16.10;71.20;;;;;;5094966;28;20316;-58
2022/06/11 09:05:14;;;;;;;;;;;16.10;71.40;;;;;;5095207;28;19920;-45
2022/06/11 09:07:55;;;;;;;;;;;16.10;71.40;;;;;;5095199;28;19916;-45
2022/06/11 09:10:48;;;;;;;;;;;16.00;71.80;;;;;;5095405;28;19982;-52
2022/06/11 09:13:20;;;;;;;;;;;16.00;71.30;;;;;;5095158;28;20271;-55
2022/06/11 09:15:56;;;;;;;;;;;15.90;71.20;;;;;;5095039;28;19908;-43
2022/06/11 09:18:32;;;;;;;;;;;15.90;70.30;;;;;;5094138;28;20306;-43
2022/06/11 09:21:11;;;;;;;;;;;15.90;71.20;;;;;;5094742;28;20053;-56
2022/06/11 09:23:46;;;;;;;;;;;15.80;71.20;;;;;;5094645;28;20342;-54
2022/06/11 09:26:22;;;;;;;;;;;15.80;72.00;;;;;;5093867;28;20251;-53
2022/06/11 09:29:07;;;;;;;;;;;15.80;71.50;;;;;;5094756;28;19912;-46
2022/06/11 09:31:48;;;;;;;;;;;15.80;71.50;;;;;;5093305;28;19908;-44
2022/06/11 09:34:36;;;;;;;;;;;15.80;71.50;;;;;;5094438;28;19908;-47
2022/06/11 09:37:10;;;;;;;;;;;15.70;71.30;;;;;;5094327;28;19999;-48
2022/06/11 09:39:40;;;;;;;;;;;15.70;71.30;;;;;;5094808;28;20377;-46
2022/06/11 09:42:42;;;;;;;;;;;15.70;71.60;;;;;;5094724;28;19919;-46
2022/06/11 09:45:24;;;;;;;;;;;15.70;71.50;;;;;;5051960;28;19916;-51
2022/06/11 09:48:09;;;;;;;;;;;15.60;71.50;;;;;;5086886;28;19928;-44
2022/06/11 09:50:43;;;;;;;;;;;15.60;71.50;;;;;;5088214;28;19908;-47
2022/06/11 09:53:22;;;;;;;;;;;15.60;71.90;;;;;;5091726;28;19912;-54
2022/06/11 09:55:55;;;;;;;;;;;15.60;71.60;;;;;;5092846;28;19916;-51
2022/06/11 09:58:40;;;;;;;;;;;15.60;72.00;;;;;;5093580;28;19908;-49
2022/06/11 10:01:13;;;;;;;;;;;15.60;72.70;;;;;;5093868;28;20366;-51
2022/06/11 10:03:39;;;;;;;;;;;15.50;72.20;;;;;;5094687;28;19923;-55
2022/06/11 10:06:14;;;;;;;;;;;15.60;72.00;;;;;;5094386;28;19965;-50
2022/06/11 10:08:58;;;;;;;;;;;15.50;72.30;;;;;;5092777;28;19920;-56
2022/06/11 10:11:36;;;;;;;;;;;15.50;72.30;;;;;;5092924;28;19908;-60
2022/06/11 10:14:29;;;;;;;;;;;15.50;72.70;;;;;;5092579;28;20387;-53
2022/06/11 10:17:11;;;;;;;;;;;15.50;72.10;;;;;;5093985;28;19973;-63
2022/06/11 10:19:45;;;;;;;;;;;15.40;72.60;;;;;;5093588;28;19953;-51
2022/06/11 10:22:15;;;;;;;;;;;15.40;72.40;;;;;;5094170;28;19909;-55
2022/06/11 10:24:46;;;;;;;;;;;15.40;72.60;;;;;;5093231;28;19916;-44
2022/06/11 10:27:14;;;;;;;;;;;15.30;72.80;;;;;;5093544;28;20342;-54
2022/06/11 10:29:49;;;;;;;;;;;15.30;72.90;;;;;;5094045;28;19908;-61
2022/06/11 10:32:16;;;;;;;;;;;15.30;72.90;;;;;;5093846;28;19908;-57
2022/06/11 10:34:48;;;;;;;;;;;15.30;72.50;;;;;;5093713;28;20055;-54
2022/06/11 10:37:24;;;;;;;;;;;15.20;73.10;;;;;;5094181;28;20015;-54
2022/06/11 10:40:06;;;;;;;;;;;15.20;73.00;;;;;;5094120;28;19995;-53
2022/06/11 10:42:39;;;;;;;;;;;15.20;73.00;;;;;;5093497;28;20015;-61
2022/06/11 10:45:12;;;;;;;;;;;15.20;72.90;;;;;;5092221;28;20333;-55
2022/06/11 10:47:40;;;;;;;;;;;15.20;73.20;;;;;;5093397;28;19954;-55
2022/06/11 10:50:09;;;;;;;;;;;15.20;73.10;;;;;;5093254;28;19912;-57
2022/06/11 10:52:38;;;;;;;;;;;15.20;73.00;;;;;;5092911;28;19908;-48
2022/06/11 10:55:06;;;;;;;;;;;15.10;73.10;;;;;;5093449;28;19908;-53
2022/06/11 10:57:34;;;;;;;;;;;15.10;73.40;;;;;;5093293;28;19909;-49
2022/06/11 11:00:07;;;;;;;;;;;15.10;73.30;;;;;;5093646;28;20007;-60
2022/06/11 11:02:33;;;;;;;;;;;15.10;73.30;;;;;;5093161;28;20267;-63
2022/06/11 11:05:02;;;;;;;;;;;15.10;73.30;;;;;;5093287;28;20432;-62
2022/06/11 11:07:44;;;;;;;;;;;15.10;74.00;;;;;;5093326;28;20424;-57
2022/06/11 11:10:20;;;;;;;;;;;15.00;73.10;;;;;;5093038;28;19915;-59
2022/06/11 11:12:49;;;;;;;;;;;15.00;73.40;;;;;;5093147;28;20029;-57
2022/06/11 11:15:18;;;;;;;;;;;15.00;73.30;;;;;;5093363;28;19998;-61
2022/06/11 11:17:46;;;;;;;;;;;15.00;73.00;;;;;;5091928;28;19912;-51
2022/06/11 11:20:42;;;;;;;;;;;15.00;73.30;;;;;;5093203;28;19985;-61
2022/06/11 11:23:17;;;;;;;;;;;15.00;73.10;;;;;;5084725;28;20344;-60
2022/06/11 11:25:53;;;;;;;;;;;14.90;73.10;;;;;;5093059;28;19995;-59
2022/06/11 11:28:38;;;;;;;;;;;14.90;72.80;;;;;;5093109;28;20324;-61
2022/06/11 11:31:09;;;;;;;;;;;14.90;73.20;;;;;;5093552;28;19998;-61
2022/06/11 11:33:43;;;;;;;;;;;14.90;73.10;;;;;;5093694;28;19912;-62
2022/06/11 11:36:17;;;;;;;;;;;14.90;73.10;;;;;;5093340;28;19909;-61
2022/06/11 11:38:44;;;;;;;;;;;14.90;73.30;;;;;;5093450;28;20166;-61
2022/06/11 11:41:25;;;;;;;;;;;14.80;73.00;;;;;;5093087;28;19955;-61
2022/06/11 11:43:56;;;;;;;;;;;14.90;73.20;;;;;;5093189;28;19970;-61
2022/06/11 11:46:24;;;;;;;;;;;14.80;73.00;;;;;;5093336;28;19908;-59
2022/06/11 11:48:55;;;;;;;;;;;14.80;73.20;;;;;;5092806;28;19908;-62
2022/06/11 11:51:31;;;;;;;;;;;14.80;73.00;;;;;;5093247;28;19908;-58
2022/06/11 11:54:14;;;;;;;;;;;14.80;73.10;;;;;;5093009;28;19948;-59
2022/06/11 11:56:42;;;;;;;;;;;14.80;73.00;;;;;;5090904;28;20006;-58
2022/06/11 11:59:16;;;;;;;;;;;14.80;73.00;;;;;;5093855;28;19908;-47
2022/06/11 12:01:44;;;;;;;;;;;14.70;73.10;;;;;;5095553;28;19908;-58
2022/06/11 12:04:16;;;;;;;;;;;14.70;73.10;;;;;;5096728;28;19916;-58
2022/06/11 12:06:45;;;;;;;;;;;14.70;73.20;;;;;;5096034;28;19912;-54
2022/06/11 12:09:24;;;;;;;;;;;14.70;73.10;;;;;;5096744;28;19931;-54
2022/06/11 12:12:17;;;;;;;;;;;14.70;73.10;;;;;;5097259;28;19909;-53
2022/06/11 12:14:56;;;;;;;;;;;14.70;73.10;;;;;;5094123;28;20390;-60
2022/06/11 12:17:41;;;;;;;;;;;14.60;73.10;;;;;;5095678;28;19912;-60
2022/06/11 12:20:16;;;;;;;;;;;14.60;73.10;;;;;;5096668;28;20334;-57
2022/06/11 12:22:48;;;;;;;;;;;14.60;73.00;;;;;;5096275;28;19907;-61
2022/06/11 12:25:34;;;;;;;;;;;14.60;73.00;;;;;;5096429;28;20002;-56
2022/06/11 12:28:02;;;;;;;;;;;14.60;72.50;;;;;;5096020;28;19915;-59
2022/06/11 12:30:29;;;;;;;;;;;14.60;72.80;;;;;;5096000;28;20440;-59
2022/06/11 12:32:58;;;;;;;;;;;14.60;72.90;;;;;;5096328;28;20438;-60
2022/06/11 12:35:43;;;;;;;;;;;14.50;72.70;;;;;;5096336;28;19909;-46
2022/06/11 12:38:35;;;;;;;;;;;14.50;72.60;;;;;;5095869;28;19954;-61
2022/06/11 12:41:34;;;;;;;;;;;14.50;72.70;;;;;;5096367;28;19912;-57
2022/06/11 12:44:04;;;;;;;;;;;14.50;72.60;;;;;;5072782;28;19987;-61
2022/06/11 12:46:37;;;;;;;;;;;14.50;72.90;;;;;;5095577;28;19955;-53
2022/06/11 12:49:12;;;;;;;;;;;14.40;72.90;;;;;;5095774;28;20359;-45
2022/06/11 12:51:52;;;;;;;;;;;14.40;72.90;;;;;;5095970;28;20350;-58
2022/06/11 12:54:45;;;;;;;;;;;14.40;72.90;;;;;;5095773;28;19909;-44
2022/06/11 12:57:21;;;;;;;;;;;14.40;73.00;;;;;;5095879;28;19908;-52
2022/06/11 13:00:04;;;;;;;;;;;14.40;73.00;;;;;;5107015;28;19908;-60
2022/06/11 13:02:33;;;;;;;;;;;14.40;73.00;;;;;;5115609;28;20000;-56
2022/06/11 13:05:03;;;;;;;;;;;14.40;73.10;;;;;;5116511;28;19926;-54
2022/06/11 13:07:39;;;;;;;;;;;14.40;73.10;;;;;;5116311;28;20317;-53
2022/06/11 13:10:12;;;;;;;;;;;14.30;73.20;;;;;;5116575;28;19912;-60
2022/06/11 13:12:57;;;;;;;;;;;14.30;73.30;;;;;;5115701;28;19908;-60
2022/06/11 13:15:24;;;;;;;;;;;14.30;73.20;;;;;;5116134;28;20052;-59
2022/06/11 13:17:50;;;;;;;;;;;14.30;73.40;;;;;;5116006;28;19907;-59
2022/06/11 13:20:20;;;;;;;;;;;14.30;73.50;;;;;;5115853;28;19998;-50
2022/06/11 13:22:50;;;;;;;;;;;14.30;73.50;;;;;;5115661;28;20415;-48
2022/06/11 13:25:31;;;;;;;;;;;14.30;73.50;;;;;;5115641;28;19916;-47
2022/06/11 13:28:16;;;;;;;;;;;14.30;73.50;;;;;;5116498;28;20350;-51
2022/06/11 13:31:01;;;;;;;;;;;14.20;73.50;;;;;;5117474;28;19934;-57
2022/06/11 13:33:38;;;;;;;;;;;14.20;73.60;;;;;;5116224;28;19935;-48
2022/06/11 13:36:24;;;;;;;;;;;14.20;73.60;;;;;;5117120;28;19908;-45
2022/06/11 13:39:06;;;;;;;;;;;14.20;73.60;;;;;;5093914;28;19908;-60
2022/06/11 13:42:05;;;;;;;;;;;14.20;73.60;;;;;;5115754;28;19986;-53
2022/06/11 13:44:44;;;;;;;;;;;14.20;73.50;;;;;;5102785;28;19915;-61
2022/06/11 13:47:23;;;;;;;;;;;14.20;73.60;;;;;;5115171;28;20286;-57
2022/06/11 13:49:53;;;;;;;;;;;14.20;73.60;;;;;;5115204;28;20323;-62
2022/06/11 13:55:13;;;;;;;;;;;14.20;73.50;;;;;;5093193;28;19915;-62
2022/06/11 13:57:56;;;;;;;;;;;14.10;73.60;;;;;;5114973;28;19958;-59
2022/06/11 14:00:41;;;;;;;;;;;14.10;73.90;;;;;;5115158;28;19908;-49
2022/06/11 14:03:08;;;;;;;;;;;14.10;74.00;;;;;;5114802;28;19951;-49
2022/06/11 14:05:40;;;;;;;;;;;14.10;73.80;;;;;;5115122;28;19912;-56
2022/06/11 14:08:07;;;;;;;;;;;14.10;73.90;;;;;;5113348;28;19924;-50
2022/06/11 14:10:39;;;;;;;;;;;14.10;73.80;;;;;;5114595;28;19960;-51
2022/06/11 14:13:11;;;;;;;;;;;14.10;73.90;;;;;;5115028;28;19908;-44
2022/06/11 14:15:45;;;;;;;;;;;14.10;74.00;;;;;;5114928;28;19984;-49
2022/06/11 14:18:21;;;;;;;;;;;14.10;74.00;;;;;;5114635;28;20318;-52
2022/06/11 14:20:53;;;;;;;;;;;14.10;74.10;;;;;;5113153;28;20333;-53
2022/06/11 14:23:25;;;;;;;;;;;14.00;74.10;;;;;;5113736;28;19919;-55
2022/06/11 14:25:53;;;;;;;;;;;14.00;74.10;;;;;;5114426;28;19953;-55
2022/06/11 14:28:22;;;;;;;;;;;14.00;74.20;;;;;;5114317;28;20292;-48
2022/06/11 14:30:48;;;;;;;;;;;14.00;74.20;;;;;;5112997;28;19908;-54
2022/06/11 14:33:15;;;;;;;;;;;14.00;74.20;;;;;;5114395;28;19908;-49
2022/06/11 14:35:52;;;;;;;;;;;14.00;74.10;;;;;;5114571;28;19983;-58
2022/06/11 14:38:22;;;;;;;;;;;14.00;74.20;;;;;;5114382;28;19915;-47
2022/06/11 14:40:50;;;;;;;;;;;14.00;74.20;;;;;;5114012;28;19951;-52
2022/06/11 14:43:19;;;;;;;;;;;14.00;74.30;;;;;;5114217;28;19931;-49
2022/06/11 14:45:48;;;;;;;;;;;14.00;74.30;;;;;;5114311;28;20295;-42
2022/06/11 14:48:30;;;;;;;;;;;14.00;74.30;;;;;;5114160;28;19908;-55